Hornitos, CA (95325)

7:10 PM PDT on September 18, 2014 (GMT -0700)
CATHEY'S VALLEY | Change Station
CLOSE
Current Station
Personal Weather Station
Location: Catheys Valley, CA
Elevation: 2099 ft
Nearby Weather Stations

Elev 2099 ft 37.47 °N, 120.08 °W | Updated 24 minutes ago

Clear
Clear
82.0 °F
Feels Like 82 °F
N
12.0
Wind Variable Wind from WNW

Today
High -- | Low -- °F
--% Chance of Precip.
Yesterday
High -- | Low -- °F
Precip. -- in
6:45 AM 7:03 PM
Waning Crescent, 23% visible
Pressure 29.78 in
Visibility 10.0 miles
Clouds Clear
Heat Index 82 °F
Dew Point 56 °F
Humidity 41%
Rainfall -999.00 in
Snow Depth 0 in , 1 in , 0 in
UV 0 out of 12
Pollen 6.00 out of 12
Air Quality Not available.
Flu Activity Not available.
METAR KMER 190145Z 33012KT 10SM SKC 28/14 A2978

More Conditions Fewer Conditions

Pressure 29.78 in
Visibility 10.0 miles
Clouds Clear
Heat Index 82 °F
Dew Point 56 °F
Humidity 41%
Rainfall -999.00 in
Snow Depth 0 in , 1 in , 0 in
UV 0 out of 12
Pollen 6.00 out of 12
Air Quality Not available.
Flu Activity Not available.
METAR KMER 190145Z 33012KT 10SM SKC 28/14 A2978

More Conditions Fewer Conditions

10-Day Weather Forecast

Almanac

Astronomy

Sep. 18, 2014 Rise Set
Actual Time 6:45 AM PDT 7:03 PM PDT
Civil Twilight 6:19 AM PDT 7:29 PM PDT
Nautical Twilight 5:48 AM PDT 8:00 PM PDT
Astronomical Twilight 5:17 AM PDT 8:31 PM PDT
Moon 1:46 AM PDT (9/18) 3:54 PM PDT (9/18)
Length of Visible Light 13h 10m
Length of Day
12h 18m
Tomorrow will be 2m 22s shorter.
Waning Crescent, 23% of the Moon is Illuminated
Today
Waning Crescent
Sep 24
New
Oct 1
First Quarter
Oct 8
Full
Oct 15
Last Quarter

Today's Extremes

State Highs State Lows

Community

WunderPhotos

Upload Photos

1,754,537 photos uploaded!

Nearby

Snow Depth

Station Depth Elevation
Leavitt Lake 0 in 9400 ft
CSS Lab 1 in 6900 ft
Hagan's Meadow 0 in 8000 ft
Adin Mountain 1 in 6200 ft
Echo Peak 0 in 7800 ft

Earthquake Activity

City Distance Mag. Time & Date
Corcoran, California 103 miles 3.0 3:59 PM PDT
2014-09-18
Minimum magnitude displayed is 2.5.

Coastal Water Temperatures

Place Temperature
No Stations Reporting

Nearby Weather Stations